• Join FlightAware (Why Join?)
  • Login
  • US Flag 
04:43AM EDT


 

Airport Tracker/Info


-or-


 

Live Flight TrackerFlight Track Log ✈ DAL10 ✈ 20-Apr-2013 ✈ KATL - EGLL / LHR

Flight Track Log - Related Links

Times and Time Zones

All times are in EDT time to prevent confusion due to time zone crossing. See the DAL10 flight status page for this flight to view local times or setup timezone preferences in your user account.

Time Position Orientation Groundspeed Altitude Reporting Facility
EDT Latitude Longitude Course Direction KTS MPH feet Rate Location/Type
11:23PM 33.6350 -84.4510 269° West 184 212 1,400  Level FlightAware
11:23PM 33.6330 -84.4680 262° West 196 226 2,100 1,560 Climbing FlightAware
11:24PM 33.6130 -84.5180 244° Southwest 248 285 3,000 1,560 Climbing FlightAware
11:24PM 33.6120 -84.5320 265° West 248 285 3,400 1,800 Climbing FlightAware
11:25PM 33.6310 -84.5620 307° West 260 299 4,200 1,860 Climbing FlightAware
11:25PM 33.6470 -84.5660 348° North 263 303 4,800 2,400 Climbing FlightAware
11:25PM 33.6520 -84.5660 360° North 264 304 5,000 2,400 Climbing FlightAware
11:25PM 33.6850 -84.5580 11° North 275 316 6,000 2,160 Climbing FlightAware
11:26PM 33.7190 -84.5420 21° North 280 322 7,000 2,640 Climbing FlightAware
11:26PM 33.7430 -84.5310 21° North 273 314 8,200 2,880 Climbing FlightAware
11:27PM 33.7810 -84.5140 20° North 289 333 9,400 1,800 Climbing FlightAware
11:28PM 33.8390 -84.4870 21° North 326 375 10,500 1,680 Climbing FlightAware
11:28PM 33.9100 -84.4550 21° North 363 418 12,000 2,160 Climbing FlightAware
11:29PM 33.9740 -84.4260 21° North 379 436 13,600 2,280 Climbing FlightAware
11:30PM 34.0510 -84.3900 21° North 394 453 15,300 2,280 Climbing FlightAware
11:30PM 34.1190 -84.3590 21° North 396 456 16,900 2,220 Climbing FlightAware
11:31PM 34.1790 -84.3310 21° North 414 476 18,100 2,160 Climbing FlightAware
11:32PM 34.3076 -84.2781 19° North 425 489 20,500 2,100 Climbing FlightAware ADS-B
11:32PM 34.3625 -84.2642 12° North 430 495 21,400 1,860 Climbing FlightAware ADS-B
11:33PM 34.4217 -84.2503 11° North 437 503 22,300 1,740 Climbing FlightAware ADS-B
11:34PM 34.4827 -84.2362 11° North 443 510 23,200 1,620 Climbing FlightAware ADS-B
11:34PM 34.5454 -84.2218 11° North 449 517 24,000 1,680 Climbing FlightAware ADS-B
11:35PM 34.6070 -84.2071 11° North 453 521 24,900 1,620 Climbing FlightAware ADS-B
11:35PM 34.6700 -84.1923 11° North 456 525 25,700 1,560 Climbing FlightAware ADS-B
11:36PM 34.7390 -84.1759 11° North 462 532 26,600 1,500 Climbing FlightAware ADS-B
11:36PM 34.8029 -84.1607 11° North 467 537 27,300 1,320 Climbing FlightAware ADS-B
11:37PM 34.8676 -84.1452 11° North 471 542 28,000 1,440 Climbing FlightAware ADS-B
11:37PM 34.9338 -84.1295 11° North 474 545 28,800 1,200 Climbing FlightAware ADS-B
11:38PM 34.9940 -84.1150 11° North 477 549 29,300 1,260 Climbing FlightAware
11:38PM 35.0070 -84.1120 11° North 479 551 29,500 1,440 Climbing FlightAware ADS-B
11:38PM 35.0743 -84.0958 11° North 483 556 30,100 1,320 Climbing FlightAware ADS-B
11:39PM 35.1419 -84.0797 11° North 481 554 30,900 1,440 Climbing FlightAware ADS-B
11:39PM 35.2088 -84.0636 11° North 479 551 31,600 1,320 Climbing FlightAware ADS-B
11:40PM 35.2762 -84.0473 11° North 479 551 32,300 1,260 Climbing FlightAware ADS-B
11:40PM 35.3426 -84.0314 11° North 478 550 32,900 660 Climbing FlightAware ADS-B
11:41PM 35.4087 -84.0154 11° North 479 551 33,000 60 Climbing FlightAware ADS-B
11:41PM 35.4742 -83.9997 11° North 478 550 33,000  Level FlightAware ADS-B
11:42PM 35.5398 -83.9838 11° North 478 550 33,000  Level FlightAware ADS-B
11:42PM 35.6053 -83.9678 11° North 480 552 33,000  Level FlightAware ADS-B
11:43PM 35.6715 -83.9519 11° North 481 554 33,000  Level FlightAware ADS-B
11:43PM 35.7372 -83.9358 11° North 482 555 33,000  Level FlightAware ADS-B
11:44PM 35.8054 -83.9193 11° North 483 556 33,000  Level FlightAware ADS-B
11:44PM 35.8696 -83.9032 11° North 485 558 33,000  Level FlightAware ADS-B
11:44PM 35.8833 -83.8989 14° North 488 562 33,000  Level FlightAware ADS-B
11:45PM 35.9324 -83.8774 20° North 496 571 33,000  Level FlightAware ADS-B
11:45PM 35.9957 -83.8403 25° Northeast 500 575 33,000  Level FlightAware ADS-B
11:46PM 36.0400 -83.8124 27° Northeast 501 577 33,000  Level FlightAware ADS-B
11:46PM 36.0579 -83.7980 33° Northeast 508 585 33,000  Level FlightAware ADS-B
11:46PM 36.1126 -83.7362 42° Northeast 512 589 33,000  Level FlightAware ADS-B
11:47PM 36.1656 -83.6768 42° Northeast 512 589 33,000  Level FlightAware ADS-B
11:47PM 36.2250 -83.6128 41° Northeast 511 588 33,000  Level FlightAware ADS-B
11:48PM 36.2795 -83.5553 40° Northeast 511 588 33,000  Level FlightAware ADS-B
11:48PM 36.3340 -83.4984 40° Northeast 510 587 33,000  Level FlightAware ADS-B
11:49PM 36.3902 -83.4401 40° Northeast 510 587 33,000  Level FlightAware ADS-B
11:49PM 36.4471 -83.3816 40° Northeast 508 585 33,000  Level FlightAware ADS-B
11:50PM 36.5018 -83.3253 40° Northeast 508 585 33,000  Level FlightAware ADS-B
11:50PM 36.5574 -83.2671 40° Northeast 508 585 33,000  Level FlightAware ADS-B
11:51PM 36.6106 -83.2083 42° Northeast 508 585 33,000  Level FlightAware ADS-B
11:52PM 36.6941 -83.1148 42° Northeast 508 585 33,000  Level FlightAware ADS-B
11:52PM 36.7483 -83.0542 42° Northeast 506 582 33,000  Level FlightAware ADS-B
11:53PM 36.8026 -82.9935 42° Northeast 506 582 33,000  Level FlightAware ADS-B
11:53PM 36.8643 -82.9211 43° Northeast 507 583 33,000  Level FlightAware ADS-B
11:54PM 36.9149 -82.8578 45° Northeast 509 586 33,000  Level FlightAware ADS-B
11:54PM 36.9640 -82.7930 47° Northeast 510 587 33,000  Level FlightAware ADS-B
11:55PM 37.0136 -82.7263 47° Northeast 512 589 33,000  Level FlightAware ADS-B
11:55PM 37.0637 -82.6578 47° Northeast 513 590 33,000  Level FlightAware ADS-B
11:56PM 37.1650 -82.5191 47° Northeast 513 590 33,000  Level FlightAware ADS-B
11:57PM 37.2145 -82.4513 47° Northeast 515 593 33,000  Level FlightAware ADS-B
11:57PM 37.2636 -82.3838 48° Northeast 515 593 33,000  Level FlightAware ADS-B
11:58PM 37.3132 -82.3159 47° Northeast 515 593 33,000  Level FlightAware ADS-B
11:59PM 37.3623 -82.2482 48° Northeast 515 593 33,000  Level FlightAware ADS-B
11:59PM 37.4108 -82.1816 47° Northeast 514 592 33,000  Level FlightAware ADS-B
12:00AM 37.4598 -82.1143 47° Northeast 512 589 33,000  Level FlightAware ADS-B
12:00AM 37.5128 -82.0412 48° Northeast 513 590 33,000  Level FlightAware ADS-B
12:01AM 37.5648 -81.9694 48° Northeast 513 590 33,000  Level FlightAware ADS-B
12:01AM 37.6143 -81.9006 48° Northeast 515 593 33,000  Level FlightAware ADS-B
12:02AM 37.6919 -81.7927 48° Northeast 515 593 33,000  Level FlightAware ADS-B
12:03AM 37.7720 -81.6810 48° Northeast 515 593 33,000  Level FlightAware
12:04AM 37.8420 -81.5820 48° Northeast 516 594 33,000  Level FlightAware
12:04AM 37.9060 -81.4930 48° Northeast 517 595 33,000  Level FlightAware
12:05AM 37.9700 -81.4030 48° Northeast 516 594 33,000  Level FlightAware
12:06AM 38.0430 -81.2990 48° Northeast 516 594 33,000  Level FlightAware
12:06AM 38.1070 -81.2100 48° Northeast 517 595 33,000  Level FlightAware
12:07AM 38.1770 -81.1100 48° Northeast 518 596 33,000  Level FlightAware
12:08AM 38.2400 -81.0200 48° Northeast 519 597 33,000  Level FlightAware
12:08AM 38.3050 -80.9270 48° Northeast 520 598 33,000  Level FlightAware
12:09AM 38.3790 -80.8220 48° Northeast 520 598 33,000  Level FlightAware
12:10AM 38.4430 -80.7290 49° Northeast 522 601 33,000  Level FlightAware
12:10AM 38.5050 -80.6410 48° Northeast 521 600 33,000  Level FlightAware
12:11AM 38.5700 -80.5460 49° Northeast 520 598 33,000  Level FlightAware
12:12AM 38.6600 -80.4180 48° Northeast 520 598 33,000  Level FlightAware
12:13AM 38.7350 -80.3070 49° Northeast 520 598 33,000  Level FlightAware
12:14AM 38.7990 -80.2140 49° Northeast 520 598 33,000  Level FlightAware
12:14AM 38.8620 -80.1210 49° Northeast 520 598 33,000  Level FlightAware
12:15AM 38.9360 -80.0130 49° Northeast 522 601 33,000  Level FlightAware
12:16AM 38.9990 -79.9190 49° Northeast 523 602 33,000  Level FlightAware
12:16AM 39.0620 -79.8260 49° Northeast 523 602 33,000  Level FlightAware
12:17AM 39.1320 -79.7230 49° Northeast 523 602 33,000  Level FlightAware
12:18AM 39.2190 -79.5930 49° Northeast 524 603 33,000  Level FlightAware
12:19AM 39.2920 -79.4840 49° Northeast 524 603 33,000  Level FlightAware
12:19AM 39.3470 -79.4010 49° Northeast 524 603 33,000  Level FlightAware
12:20AM 39.4090 -79.3080 49° Northeast 525 604 33,000  Level FlightAware
12:21AM 39.4890 -79.1870 49° Northeast 527 606 33,000  Level FlightAware
12:21AM 39.5540 -79.0900 49° Northeast 529 609 33,000  Level FlightAware
12:22AM 39.6250 -78.9820 49° Northeast 530 610 33,000  Level FlightAware
12:23AM 39.6810 -78.8960 50° Northeast 530 610 33,000  Level FlightAware
12:24AM 39.7600 -78.7750 50° Northeast 530 610 33,000  Level FlightAware
12:24AM 39.8390 -78.6530 50° Northeast 531 611 33,000  Level FlightAware
12:25AM 39.9090 -78.5450 50° Northeast 533 613 33,000  Level FlightAware
12:26AM 39.9740 -78.4460 49° Northeast 533 613 33,000  Level FlightAware
12:27AM 40.0340 -78.3520 50° Northeast 534 615 33,000  Level FlightAware
12:27AM 40.1099 -78.2336 50° Northeast 536 617 33,000  Level FlightAware ADS-B
12:28AM 40.1571 -78.1599 50° Northeast 537 618 33,000  Level FlightAware ADS-B
12:28AM 40.2058 -78.0833 50° Northeast 538 619 33,000  Level FlightAware ADS-B
12:29AM 40.2539 -78.0079 50° Northeast 540 621 33,000  Level FlightAware ADS-B
12:29AM 40.3047 -77.9279 50° Northeast 541 623 33,000  Level FlightAware ADS-B
12:30AM 40.3591 -77.8423 50° Northeast 542 624 33,000  Level FlightAware ADS-B
12:31AM 40.4285 -77.7325 50° Northeast 543 625 33,000  Level FlightAware ADS-B
12:31AM 40.4781 -77.6536 50° Northeast 545 627 33,000  Level FlightAware ADS-B
12:32AM 40.5265 -77.5763 51° Northeast 546 628 33,000  Level FlightAware ADS-B
12:32AM 40.5790 -77.4927 50° Northeast 546 628 33,000  Level FlightAware ADS-B
12:33AM 40.6278 -77.4142 51° Northeast 547 629 33,000  Level FlightAware ADS-B
12:33AM 40.6803 -77.3298 51° Northeast 549 632 33,000  Level FlightAware ADS-B
12:34AM 40.7289 -77.2515 51° Northeast 551 634 33,000  Level FlightAware ADS-B
12:34AM 40.7804 -77.1685 51° Northeast 552 635 33,000  Level FlightAware ADS-B
12:35AM 40.8317 -77.0855 51° Northeast 554 638 33,000  Level FlightAware ADS-B
12:35AM 40.8806 -77.0062 51° Northeast 557 641 33,000  Level FlightAware ADS-B
12:36AM 40.9299 -76.9259 51° Northeast 559 643 33,000  Level FlightAware ADS-B
12:36AM 40.9786 -76.8462 51° Northeast 560 644 33,000  Level FlightAware ADS-B
12:37AM 41.0284 -76.7645 51° Northeast 561 646 33,000  Level FlightAware ADS-B
12:37AM 41.0779 -76.6833 51° Northeast 562 647 33,000  Level FlightAware ADS-B
12:38AM 41.1269 -76.6029 51° Northeast 562 647 33,000  Level FlightAware ADS-B
12:38AM 41.1757 -76.5224 51° Northeast 561 646 33,000  Level FlightAware ADS-B
12:39AM 41.2238 -76.4429 51° Northeast 561 646 33,000  Level FlightAware ADS-B
12:39AM 41.2739 -76.3602 51° Northeast 561 646 33,000  Level FlightAware ADS-B
12:40AM 41.3228 -76.2786 51° Northeast 561 646 33,000  Level FlightAware ADS-B
12:40AM 41.3714 -76.1977 51° Northeast 561 646 33,000  Level FlightAware ADS-B
12:41AM 41.4210 -76.1148 51° Northeast 562 647 33,000  Level FlightAware ADS-B
12:41AM 41.4713 -76.0305 51° Northeast 561 646 33,000  Level FlightAware ADS-B
12:42AM 41.5202 -75.9483 52° Northeast 561 646 33,000  Level FlightAware ADS-B
12:42AM 41.5690 -75.8659 52° Northeast 561 646 33,000  Level FlightAware ADS-B
12:43AM 41.6174 -75.7841 52° Northeast 561 646 33,000  Level FlightAware ADS-B
12:43AM 41.6660 -75.7019 52° Northeast 561 646 33,000  Level FlightAware ADS-B
12:44AM 41.7149 -75.6188 52° Northeast 561 646 33,000  Level FlightAware ADS-B
12:44AM 41.7642 -75.5349 52° Northeast 561 646 33,000  Level FlightAware ADS-B
12:45AM 41.8131 -75.4515 52° Northeast 562 647 33,000  Level FlightAware ADS-B
12:45AM 41.8608 -75.3694 52° Northeast 564 649 33,000  Level FlightAware ADS-B
12:46AM 41.9090 -75.2867 52° Northeast 564 649 33,000  Level FlightAware ADS-B
12:46AM 41.9574 -75.2033 52° Northeast 564 649 33,000  Level FlightAware ADS-B
12:47AM 42.0071 -75.1177 52° Northeast 566 651 33,000  Level FlightAware ADS-B
12:47AM 42.0560 -75.0328 52° Northeast 567 652 33,000  Level FlightAware ADS-B
12:48AM 42.1047 -74.9487 52° Northeast 568 654 33,000  Level FlightAware ADS-B
12:49AM 42.1580 -74.8557 52° Northeast 570 656 33,000  Level FlightAware ADS-B
12:49AM 42.2086 -74.7671 52° Northeast 570 656 33,000  Level FlightAware ADS-B
12:49AM 42.2318 -74.7278 51° Northeast 569 655 33,000  Level FlightAware ADS-B
12:50AM 42.3150 -74.6220 43° Northeast 567 652 33,000  Level FlightAware
12:51AM 42.3930 -74.5250 43° Northeast 570 656 33,000  Level FlightAware
12:52AM 42.4880 -74.4030 43° Northeast 571 657 33,000  Level FlightAware
12:52AM 42.5730 -74.2920 44° Northeast 571 657 33,000  Level FlightAware
12:53AM 42.6490 -74.1920 44° Northeast 574 661 33,000  Level FlightAware
12:54AM 42.7260 -74.0890 44° Northeast 573 659 33,000  Level FlightAware
12:54AM 42.8100 -73.9760 45° Northeast 573 659 33,000  Level FlightAware
12:55AM 42.8870 -73.8740 44° Northeast 572 658 33,000  Level FlightAware
12:56AM 42.9720 -73.7630 44° Northeast 572 658 33,000  Level FlightAware
12:56AM 43.0490 -73.6630 43° Northeast 575 662 33,000  Level FlightAware
12:57AM 43.1250 -73.5630 44° Northeast 575 662 33,000  Level FlightAware
12:58AM 43.1970 -73.4680 44° Northeast 577 664 33,000  Level FlightAware
12:59AM 43.3440 -73.2730 44° Northeast 581 669 33,000  Level FlightAware
01:00AM 43.4170 -73.1760 44° Northeast 581 669 33,000  Level FlightAware
01:00AM 43.5050 -73.0590 44° Northeast 583 671 33,000  Level FlightAware
01:01AM 43.5660 -72.9760 45° Northeast 586 674 33,000  Level FlightAware
01:02AM 43.6730 -72.8330 44° Northeast 587 676 33,000  Level FlightAware
01:03AM 43.7520 -72.7250 45° Northeast 589 678 33,000  Level FlightAware
01:03AM 43.8290 -72.6200 45° Northeast 590 679 33,000  Level FlightAware
01:04AM 43.9200 -72.4960 44° Northeast 591 680 33,000  Level FlightAware
01:05AM 43.9970 -72.3910 44° Northeast 593 682 33,000  Level FlightAware
01:05AM 44.0830 -72.2730 45° Northeast 591 680 33,000  Level FlightAware
01:06AM 44.1600 -72.1660 45° Northeast 593 682 33,000  Level FlightAware
01:07AM 44.2370 -72.0600 45° Northeast 592 681 33,000  Level FlightAware
01:07AM 44.3280 -71.9330 45° Northeast 593 682 33,000  Level FlightAware
01:08AM 44.4060 -71.8230 45° Northeast 591 680 33,000  Level FlightAware
01:09AM 44.4890 -71.7070 45° Northeast 594 684 33,000  Level FlightAware
01:10AM 44.5660 -71.5980 45° Northeast 597 687 33,000  Level FlightAware
01:10AM 44.6460 -71.4860 45° Northeast 597 687 33,000  Level FlightAware
01:11AM 44.7330 -71.3620 45° Northeast 598 688 33,000  Level FlightAware
01:12AM 44.8100 -71.2510 46° Northeast 598 688 33,000  Level FlightAware
01:12AM 44.8780 -71.1550 45° Northeast 599 689 33,000  Level FlightAware
01:13AM 44.9680 -71.0240 46° Northeast 601 692 33,000  Level FlightAware
01:14AM 45.0370 -70.9240 46° Northeast 602 693 33,000  Level FlightAware
01:14AM 45.1160 -70.8090 46° Northeast 603 694 33,000  Level FlightAware
01:15AM 45.2040 -70.6810 46° Northeast 604 695 33,000  Level FlightAware
01:16AM 45.2833 -70.5333 46° Northeast 600 690 33,000  Level Moncton Center
01:16AM 45.3161 -70.5128 24° Northeast 588 677 33,000  Level Boston Center
01:17AM 45.4358 -70.3372 46° Northeast 593 682 33,000  Level Boston Center
01:18AM 45.5514 -70.1669 46° Northeast 593 682 33,000  Level Boston Center
01:19AM 45.6908 -69.9594 46° Northeast 593 682 33,000  Level Boston Center
01:20AM 45.8178 -69.7692 46° Northeast 588 677 33,000  Level Boston Center
01:21AM 45.9325 -69.5939 47° Northeast 593 682 33,000  Level Boston Center
01:27AM 46.6330 -68.5090 47° Northeast 615 708 33,000  Level FlightAware
01:28AM 46.6920 -68.4150 48° Northeast 614 707 33,000  Level FlightAware
01:29AM 46.7790 -68.2760 48° Northeast 613 705 33,000  Level FlightAware
01:29AM 46.8700 -68.1310 47° Northeast 614 707 33,000  Level FlightAware
01:30AM 46.9680 -67.9730 48° Northeast 613 705 33,000  Level FlightAware
01:31AM 47.0440 -67.8530 47° Northeast 613 705 33,000  Level FlightAware
01:32AM 47.1100 -67.7490 47° Northeast 613 705 33,000  Level FlightAware
01:32AM 47.1760 -67.6460 47° Northeast 613 705 33,000  Level FlightAware
01:33AM 47.2580 -67.5160 47° Northeast 613 705 33,000  Level FlightAware
01:34AM 47.3240 -67.4120 47° Northeast 613 705 33,000  Level FlightAware
01:34AM 47.3890 -67.3080 47° Northeast 613 705 33,000  Level FlightAware
01:35AM 47.4550 -67.2040 47° Northeast 613 705 33,000  Level FlightAware
01:36AM 47.5210 -67.0990 47° Northeast 613 705 33,000  Level FlightAware
01:37AM 47.6030 -66.9680 47° Northeast 613 705 33,000  Level FlightAware
01:37AM 47.6690 -66.8640 47° Northeast 613 705 33,000  Level FlightAware
01:38AM 47.7340 -66.7590 47° Northeast 613 705 33,000  Level FlightAware
01:39AM 47.8000 -66.6540 47° Northeast 613 705 33,000  Level FlightAware
01:39AM 47.8660 -66.5490 47° Northeast 613 705 33,000  Level FlightAware
01:40AM 47.9480 -66.4170 47° Northeast 613 705 33,000  Level FlightAware
01:41AM 48.2667 -66.1500 47° Northeast 620 713 33,000  Level Moncton Center
01:42AM 48.4167 -65.9833 36° Northeast 620 713 33,000  Level Moncton Center
01:43AM 48.5333 -65.8333 40° Northeast 620 713 33,000  Level Moncton Center
01:44AM 48.6667 -65.6667 40° Northeast 620 713 33,000  Level Moncton Center
01:45AM 48.8000 -65.4833 42° Northeast 620 713 33,000  Level Moncton Center
01:46AM 48.9167 -65.3167 43° Northeast 620 713 33,000  Level Moncton Center
01:47AM 49.0500 -65.1333 42° Northeast 620 713 33,000  Level Moncton Center
01:48AM 49.1667 -64.9833 40° Northeast 620 713 33,000  Level Moncton Center
01:49AM 49.3000 -64.7833 44° Northeast 610 702 33,000  Level Moncton Center
01:50AM 49.4333 -64.6333 36° Northeast 610 702 33,000  Level Moncton Center
01:51AM 49.5667 -64.4500 42° Northeast 620 713 33,000  Level Moncton Center
01:52AM 49.7000 -64.2667 42° Northeast 620 713 33,000  Level Moncton Center
01:53AM 49.8333 -64.0833 42° Northeast 620 713 33,000  Level Moncton Center
01:54AM 49.9667 -63.9000 41° Northeast 620 713 33,000  Level Moncton Center
01:55AM 50.0833 -63.7500 39° Northeast 620 713 33,000  Level Moncton Center
01:56AM 50.2000 -63.5667 45° Northeast 610 702 33,000  Level Moncton Center
01:57AM 50.3167 -63.3667 48° Northeast 610 702 33,000  Level Moncton Center
01:58AM 50.4500 -63.1833 41° Northeast 610 702 33,000  Level Moncton Center
01:59AM 50.5833 -63.0333 36° Northeast 610 702 33,000  Level Moncton Center
02:00AM 50.7000 -62.8333 47° Northeast 610 702 33,000  Level Moncton Center
02:01AM 50.8333 -62.6500 41° Northeast 600 690 33,000  Level Moncton Center
02:02AM 50.9667 -62.4500 43° Northeast 600 690 33,000  Level Moncton Center
02:03AM 51.0667 -62.3000 43° Northeast 590 679 33,000  Level Moncton Center
02:04AM 51.2000 -62.1000 43° Northeast 600 690 33,000  Level Moncton Center
02:05AM 51.3000 -61.9000 51° Northeast 600 690 33,000  Level Moncton Center
02:06AM 51.4333 -61.7333 38° Northeast 590 679 33,000  Level Moncton Center
02:07AM 51.5500 -61.5500 44° Northeast 600 690 33,000  Level Moncton Center
02:08AM 51.6833 -61.3500 43° Northeast 590 679 33,000  Level Moncton Center
02:09AM 51.7833 -61.1833 46° Northeast 600 690 33,000  Level Moncton Center
02:10AM 51.9167 -60.9833 43° Northeast 600 690 33,000  Level Moncton Center
02:11AM 52.0333 -60.8000 44° Northeast 600 690 33,000  Level Moncton Center
02:12AM 52.1500 -60.6000 46° Northeast 600 690 33,000  Level Moncton Center
02:13AM 52.2500 -60.4000 51° Northeast 590 679 33,000  Level Moncton Center
02:14AM 52.3667 -60.2000 46° Northeast 590 679 33,000  Level Moncton Center
02:15AM 52.4667 -60.0000 51° Northeast 600 690 33,000  Level Moncton Center
02:16AM 52.5833 -59.8000 46° Northeast 600 690 33,000  Level Moncton Center
02:17AM 52.7167 -59.6000 42° Northeast 600 690 33,000  Level Moncton Center
02:18AM 52.8167 -59.3833 53° Northeast 600 690 33,000  Level Moncton Center
02:19AM 52.9000 -59.2667 40° Northeast 600 690 33,000  Level Gander Center
02:19AM 52.9500 -59.1667 50° Northeast 600 690 33,000  Level Gander Center
02:20AM 53.0333 -58.9667 55° Northeast 600 690 33,000  Level Moncton Center
02:21AM 53.1500 -58.7833 43° Northeast 600 690 33,000  Level Moncton Center
02:22AM 53.2500 -58.5500 54° Northeast 600 690 33,000  Level Moncton Center
02:23AM 53.3500 -58.3500 50° Northeast 610 702 33,000  Level Moncton Center
02:24AM 53.4833 -58.1333 44° Northeast 610 702 33,000  Level Moncton Center
02:25AM 53.5833 -57.9167 52° Northeast 610 702 33,000  Level Moncton Center
02:26AM 53.7167 -57.7000 44° Northeast 610 702 33,000  Level Moncton Center
02:27AM 53.8167 -57.4833 52° Northeast 610 702 33,000  Level Moncton Center
02:28AM 53.9167 -57.2667 52° Northeast 610 702 33,000  Level Moncton Center
02:29AM 54.0167 -57.0500 52° Northeast 590 679 33,000  Level Moncton Center
02:30AM 54.1333 -56.8333 47° Northeast 600 690 33,000  Level Moncton Center
02:31AM 54.2333 -56.6167 52° Northeast 600 690 33,000  Level Moncton Center
02:32AM 54.3333 -56.4000 52° Northeast 600 690 33,000  Level Moncton Center
02:33AM 54.4500 -56.1667 49° Northeast 610 702 33,000  Level Moncton Center
02:34AM 54.5500 -55.9500 51° Northeast 610 702 33,000  Level Moncton Center
02:35AM 54.6500 -55.7000 55° Northeast 610 702 33,000  Level Moncton Center
02:36AM 54.7167 -55.4167 68° East 600 690 33,000  Level Moncton Center
02:37AM 54.7833 -55.1667 65° Northeast 600 690 33,000  Level Moncton Center
02:38AM 54.8500 -54.9000 66° East 600 690 33,000  Level Moncton Center
02:39AM 54.9167 -54.6500 65° Northeast 600 690 33,000  Level Moncton Center
02:40AM 54.9833 -54.3667 68° East 600 690 33,000  Level Moncton Center
02:41AM 55.0667 -54.1167 60° Northeast 600 690 33,000  Level Moncton Center
02:42AM 55.1167 -53.8333 73° East 600 690 33,000  Level Moncton Center
02:43AM 55.1667 -53.6667 62° Northeast 600 690 33,000  Level Gander Center
02:43AM 55.2000 -53.5500 63° Northeast 600 690 33,000  Level Gander Center
02:44AM 55.2667 -53.2667 67° East 600 690 33,000  Level Gander Center
02:45AM 55.3167 -53.0000 72° East 600 690 33,000  Level Gander Center
02:46AM 55.3833 -52.7167 67° East 600 690 33,000  Level Gander Center
02:47AM 55.4500 -52.4667 65° Northeast 600 690 33,000  Level Gander Center
02:48AM 55.4833 -52.2833 72° East 610 702 33,000  Level Gander Center
02:49AM 55.5500 -52.0167 66° East 610 702 33,000  Level Gander Center
02:49AM 55.5667 -51.8667 79° East 610 702 33,000  Level Gander Center
02:50AM 55.6000 -51.7167 68° East 620 713 33,000  Level Gander Center
02:50AM 55.6333 -51.6167 59° Northeast 620 713 33,000  Level Gander Center
02:51AM 55.6833 -51.3000 74° East 630 725 33,000  Level Gander Center
02:52AM 55.7667 -51.0167 62° Northeast 630 725 33,000  Level Gander Center
02:53AM 55.8000 -50.8500 70° East 630 725 33,000  Level Gander Center
02:55AM 55.8906 -50.4690 67° East  Level FlightAware Approximate
03:02AM 56.1848 -48.6489 76° East  Level FlightAware Approximate
03:03AM 56.2191 -48.3836 77° East  Level FlightAware Approximate
03:04AM 56.2529 -48.1179 77° East  Level FlightAware Approximate
03:05AM 56.2861 -47.8517 77° East  Level FlightAware Approximate
03:06AM 56.3187 -47.5850 77° East  Level FlightAware Approximate
03:07AM 56.3508 -47.3179 78° East  Level FlightAware Approximate
03:08AM 56.3815 -47.0500 79° East  Level FlightAware Approximate
03:09AM 56.4110 -46.7815 79° East  Level FlightAware Approximate
03:10AM 56.4398 -46.5126 79° East  Level FlightAware Approximate
03:11AM 56.4681 -46.2433 79° East  Level FlightAware Approximate
03:12AM 56.4958 -45.9735 79° East  Level FlightAware Approximate
03:13AM 56.5235 -45.7036 79° East  Level FlightAware Approximate
03:14AM 56.5522 -45.4338 79° East  Level FlightAware Approximate
03:15AM 56.5804 -45.1636 79° East  Level FlightAware Approximate
03:16AM 56.6079 -44.8930 79° East  Level FlightAware Approximate
03:17AM 56.6349 -44.6221 80° East  Level FlightAware Approximate
03:18AM 56.6613 -44.3507 80° East  Level FlightAware Approximate
03:19AM 56.6871 -44.0790 80° East  Level FlightAware Approximate
03:20AM 56.7123 -43.8069 80° East  Level FlightAware Approximate
03:21AM 56.7369 -43.5344 81° East  Level FlightAware Approximate
03:22AM 56.7609 -43.2616 81° East  Level FlightAware Approximate
03:23AM 56.7843 -42.9884 81° East  Level FlightAware Approximate
03:24AM 56.8071 -42.7150 81° East  Level FlightAware Approximate
03:25AM 56.8293 -42.4411 81° East  Level FlightAware Approximate
03:26AM 56.8510 -42.1670 82° East  Level FlightAware Approximate
03:27AM 56.8720 -41.8925 82° East  Level FlightAware Approximate
03:28AM 56.8924 -41.6177 82° East  Level FlightAware Approximate
03:29AM 56.9122 -41.3427 82° East  Level FlightAware Approximate
03:30AM 56.9314 -41.0673 83° East  Level FlightAware Approximate
03:31AM 56.9500 -40.7917 83° East  Level FlightAware Approximate
03:32AM 56.9680 -40.5158 83° East  Level FlightAware Approximate
03:33AM 56.9854 -40.2397 83° East  Level FlightAware Approximate
03:34AM 57.0015 -39.9631 86° East  Level FlightAware Approximate
03:35AM 57.0122 -39.6856 86° East  Level FlightAware Approximate
03:36AM 57.0223 -39.4079 86° East  Level FlightAware Approximate
03:37AM 57.0317 -39.1301 86° East  Level FlightAware Approximate
03:38AM 57.0406 -38.8521 87° East  Level FlightAware Approximate
03:39AM 57.0488 -38.5740 87° East  Level FlightAware Approximate
03:40AM 57.0564 -38.2958 87° East  Level FlightAware Approximate
03:41AM 57.0634 -38.0175 87° East  Level FlightAware Approximate
03:42AM 57.0698 -37.7391 87° East  Level FlightAware Approximate
03:43AM 57.0756 -37.4606 88° East  Level FlightAware Approximate
03:44AM 57.0807 -37.1820 88° East  Level FlightAware Approximate
03:45AM 57.0853 -36.9033 88° East  Level FlightAware Approximate
03:46AM 57.0892 -36.6246 88° East  Level FlightAware Approximate
03:47AM 57.0925 -36.3458 89° East  Level FlightAware Approximate
03:48AM 57.0952 -36.0670 89° East  Level FlightAware Approximate
03:49AM 57.0972 -35.7881 89° East  Level FlightAware Approximate
03:50AM 57.0987 -35.5092 89° East  Level FlightAware Approximate
03:51AM 57.0995 -35.2303 90° East  Level FlightAware Approximate
03:52AM 57.0997 -34.9514 90° East  Level FlightAware Approximate
03:53AM 57.0993 -34.6725 90° East  Level FlightAware Approximate
03:54AM 57.0982 -34.3936 90° East  Level FlightAware Approximate
03:55AM 57.0966 -34.1147 91° East  Level FlightAware Approximate
03:56AM 57.0943 -33.8358 91° East  Level FlightAware Approximate
03:57AM 57.0914 -33.5570 91° East  Level FlightAware Approximate
03:58AM 57.0879 -33.2782 91° East  Level FlightAware Approximate
03:59AM 57.0838 -32.9995 91° East  Level FlightAware Approximate
04:00AM 57.0790 -32.7209 92° East  Level FlightAware Approximate
04:01AM 57.0737 -32.4423 92° East  Level FlightAware Approximate
04:02AM 57.0677 -32.1638 92° East  Level FlightAware Approximate
04:03AM 57.0611 -31.8855 92° East  Level FlightAware Approximate
04:04AM 57.0538 -31.6072 93° East  Level FlightAware Approximate
04:05AM 57.0460 -31.3290 93° East  Level FlightAware Approximate
04:06AM 57.0376 -31.0509 93° East  Level FlightAware Approximate
04:07AM 57.0285 -30.7730 93° East  Level FlightAware Approximate
04:08AM 57.0188 -30.4953 94° East  Level FlightAware Approximate
04:09AM 57.0085 -30.2176 94° East  Level FlightAware Approximate
04:10AM 56.9965 -29.9403 96° East  Level FlightAware Approximate
04:11AM 56.9801 -29.6639 96° East  Level FlightAware Approximate
04:12AM 56.9630 -29.3877 96° East  Level FlightAware Approximate
04:13AM 56.9453 -29.1118 97° East  Level FlightAware Approximate
04:14AM 56.9270 -28.8361 97° East  Level FlightAware Approximate
04:15AM 56.9081 -28.5607 97° East  Level FlightAware Approximate
04:16AM 56.8887 -28.2856 97° East  Level FlightAware Approximate
04:17AM 56.8686 -28.0108 98° East  Level FlightAware Approximate
04:18AM 56.8479 -27.7363 98° East  Level FlightAware Approximate
04:19AM 56.8266 -27.4620 98° East  Level FlightAware Approximate
04:20AM 56.8047 -27.1882 98° East  Level FlightAware Approximate
04:21AM 56.7822 -26.9146 98° East  Level FlightAware Approximate
04:22AM 56.7591 -26.6413 99° East  Level FlightAware Approximate
04:23AM 56.7354 -26.3685 99° East  Level FlightAware Approximate
04:24AM 56.7111 -26.0959 99° East  Level FlightAware Approximate
04:25AM 56.6862 -25.8237 99° East  Level FlightAware Approximate
04:26AM 56.6607 -25.5519 100° East  Level FlightAware Approximate
04:27AM 56.6346 -25.2804 100° East  Level FlightAware Approximate
04:28AM 56.6080 -25.0093 100° East  Level FlightAware Approximate
04:29AM 56.5807 -24.7386 100° East  Level FlightAware Approximate
04:30AM 56.5529 -24.4683 100° East  Level FlightAware Approximate
04:31AM 56.5245 -24.1985 101° East  Level FlightAware Approximate
04:32AM 56.4955 -23.9290 101° East  Level FlightAware Approximate
04:33AM 56.4659 -23.6599 101° East  Level FlightAware Approximate
04:34AM 56.4357 -23.3913 101° East  Level FlightAware Approximate
04:35AM 56.4050 -23.1230 102° East  Level FlightAware Approximate
04:36AM 56.3736 -22.8552 102° East  Level FlightAware Approximate
04:37AM 56.3417 -22.5879 102° East  Level FlightAware Approximate
04:38AM 56.3093 -22.3210 102° East  Level FlightAware Approximate
04:39AM 56.2762 -22.0546 102° East  Level FlightAware Approximate
04:40AM 56.2426 -21.7886 103° East  Level FlightAware Approximate
04:41AM 56.2084 -21.5231 103° East  Level FlightAware Approximate
04:42AM 56.1736 -21.2581 103° East  Level FlightAware Approximate
04:43AM 56.1383 -20.9936 103° East  Level FlightAware Approximate
04:44AM 56.1024 -20.7296 104° East  Level FlightAware Approximate
04:45AM 56.0660 -20.4660 104° East  Level FlightAware Approximate
04:46AM 56.0290 -20.2030 104° East  Level FlightAware Approximate
04:47AM 55.9893 -19.9416 108° East  Level FlightAware Approximate
04:48AM 55.9420 -19.6844 108° East  Level FlightAware Approximate
04:49AM 55.8942 -19.4279 108° East  Level FlightAware Approximate
04:50AM 55.8458 -19.1720 109° East  Level FlightAware Approximate
04:51AM 55.7969 -18.9167 109° East  Level FlightAware Approximate
04:52AM 55.7475 -18.6621 109° East  Level FlightAware Approximate
04:53AM 55.6975 -18.4082 109° East  Level FlightAware Approximate
04:54AM 55.6470 -18.1549 109° East  Level FlightAware Approximate
04:55AM 55.5960 -17.9022 110° East  Level FlightAware Approximate
04:56AM 55.5445 -17.6502 110° East  Level FlightAware Approximate
04:57AM 55.4925 -17.3989 110° East  Level FlightAware Approximate
04:58AM 55.4399 -17.1483 110° East  Level FlightAware Approximate
04:59AM 55.3869 -16.8983 110° East  Level FlightAware Approximate
05:00AM 55.3333 -16.6490 111° Southeast  Level FlightAware Approximate
05:01AM 55.2792 -16.4003 111° Southeast  Level FlightAware Approximate
05:02AM 55.2247 -16.1523 111° Southeast  Level FlightAware Approximate
05:03AM 55.1696 -15.9051 111° Southeast  Level FlightAware Approximate
05:04AM 55.1140 -15.6585 111° Southeast  Level FlightAware Approximate
05:05AM 55.0579 -15.4126 112° Southeast  Level FlightAware Approximate
05:06AM 55.0014 -15.1674 112° Southeast  Level FlightAware Approximate
05:07AM 54.9443 -14.9228 112° Southeast  Level FlightAware Approximate
05:08AM 54.8867 -14.6790 112° Southeast  Level FlightAware Approximate
05:08AM 54.6320 -13.4990 112° Southeast 541 623 33,000  Level FlightAware
05:08AM 54.5900 -13.3390 114° Southeast 538 619 33,000  Level FlightAware
05:09AM 54.5510 -13.1890 114° Southeast 541 623 33,000  Level FlightAware
05:10AM 54.5030 -13.0050 114° Southeast 534 615 33,000  Level FlightAware
05:10AM 54.4610 -12.8480 115° Southeast 530 610 33,000  Level FlightAware
05:11AM 54.4150 -12.6750 114° Southeast 528 608 33,000  Level FlightAware
05:12AM 54.3730 -12.5180 115° Southeast 526 605 33,000  Level FlightAware
05:12AM 54.3330 -12.3680 115° Southeast 528 608 33,000  Level FlightAware
05:13AM 54.2870 -12.2000 115° Southeast 525 604 33,000  Level FlightAware
05:14AM 54.2450 -12.0460 115° Southeast 526 605 33,000  Level FlightAware
05:15AM 54.2040 -11.8990 115° Southeast 524 603 33,000  Level FlightAware
05:15AM 54.1610 -11.7440 115° Southeast 524 603 33,000  Level FlightAware
05:16AM 54.1140 -11.5780 116° Southeast 525 604 33,000  Level FlightAware
05:17AM 54.0670 -11.4100 115° Southeast 525 604 33,000  Level FlightAware
05:17AM 54.0230 -11.2580 116° Southeast 526 605 33,000  Level FlightAware
05:20AM 53.8881 -10.7826 116° Southeast  Level FlightAware Approximate
05:20AM 53.8610 -10.6980 116° Southeast 521 600 33,000  Level FlightAware
05:21AM 53.8180 -10.5500 116° Southeast 521 600 33,000  Level FlightAware
05:21AM 53.7700 -10.3870 116° Southeast 521 600 33,000  Level FlightAware
05:22AM 53.7250 -10.2390 117° Southeast 520 598 33,000  Level FlightAware
05:23AM 53.6770 -10.0770 117° Southeast 517 595 33,000  Level FlightAware
05:23AM 53.6340 -9.9350 117° Southeast 515 593 33,000  Level FlightAware
05:24AM 53.5900 -9.7910 117° Southeast 512 589 33,000  Level FlightAware
05:25AM 53.5400 -9.6290 117° Southeast 510 587 33,000  Level FlightAware
05:26AM 53.4990 -9.4940 117° Southeast 508 585 33,000  Level FlightAware
05:26AM 53.4480 -9.3310 118° Southeast 508 585 33,000  Level FlightAware
05:27AM 53.4050 -9.1930 118° Southeast 504 580 33,000  Level FlightAware
05:28AM 53.3610 -9.0520 118° Southeast 504 580 33,000 -1,740 Level FlightAware
05:28AM 53.3380 -8.9892 118° Southeast 436 502 31,400 -2,580 Descending FlightAware UK
05:28AM 53.3183 -8.9268 118° Southeast 438 504 31,500 3,420 Climbing FlightAware UK
05:28AM 53.3120 -8.8980 118° Southeast 510 587 33,000 -240 Climbing FlightAware
05:29AM 53.2856 -8.8230 118° Southeast 438 504 31,400 -2,580 Descending FlightAware UK
05:29AM 53.2660 -8.7605 118° Southeast 436 502 31,400 4,800 Level FlightAware UK
05:29AM 53.2670 -8.7560 118° Southeast 510 587 33,000  Climbing FlightAware
05:29AM 53.2465 -8.6980 118° Southeast 438 504 31,400 -2,880 Descending FlightAware UK
05:30AM 53.2266 -8.6356 118° Southeast 440 506 31,400 3,300 Level FlightAware UK
05:30AM 53.2170 -8.6000 118° Southeast 511 588 33,000 180 Climbing FlightAware
05:30AM 53.1933 -8.5317 118° Southeast 440 506 31,500 -2,460 Descending FlightAware UK
05:30AM 53.1734 -8.4695 118° Southeast 440 506 31,500 4,260 Level FlightAware UK
05:30AM 53.1720 -8.4600 118° Southeast 510 587 33,000  Climbing FlightAware
05:31AM 53.1534 -8.4072 118° Southeast 440 506 31,500 -2,760 Descending FlightAware UK
05:31AM 53.1334 -8.3438 118° Southeast 442 509 31,500 3,600 Level FlightAware UK
05:31AM 53.1260 -8.3200 118° Southeast 511 588 33,000  Climbing FlightAware
05:31AM 53.1066 -8.2605 118° Southeast 440 506 31,500 -2,580 Descending FlightAware UK
05:32AM 53.0866 -8.1982 118° Southeast 444 511 31,500 3,180 Level FlightAware UK
05:32AM 53.0760 -8.1650 118° Southeast 517 595 33,000  Climbing FlightAware
05:32AM 53.0530 -8.0941 118° Southeast 450 518 31,500 -2,400 Descending FlightAware UK
05:33AM 53.0325 -8.0314 119° Southeast 452 520 31,500 4,500 Level FlightAware UK
05:33AM 53.0310 -8.0270 119° Southeast 511 588 33,000  Climbing FlightAware
05:33AM 53.0050 -7.9489 119° Southeast 448 516 31,500  Descending FlightAware UK
05:33AM 52.9850 -7.8890 119° Southeast 509 586 33,000  Climbing FlightAware
05:34AM 52.9642 -7.8254 119° Southeast 450 518 31,500 -2,520 Descending FlightAware UK
05:34AM 52.9439 -7.7634 119° Southeast 448 516 31,500 3,300 Level FlightAware UK
05:34AM 52.9340 -7.7350 119° Southeast 510 587 33,000  Climbing FlightAware
05:34AM 52.9171 -7.6812 119° Southeast 446 513 31,500 -2,760 Descending FlightAware UK
05:35AM 52.8966 -7.6198 119° Southeast 444 511 31,500 4,500 Level FlightAware UK
05:35AM 52.8930 -7.6140 119° Southeast 506 582 33,000  Climbing FlightAware
05:35AM 52.8763 -7.5587 119° Southeast 448 516 31,500 -2,700 Descending FlightAware UK
05:35AM 52.8560 -7.4977 119° Southeast 446 513 31,500 4,680 Level FlightAware UK
05:35AM 52.8540 -7.4970 119° Southeast 504 580 33,000  Climbing FlightAware
05:35AM 52.8356 -7.4369 119° Southeast 446 513 31,500 -2,580 Descending FlightAware UK
05:36AM 52.8154 -7.3763 119° Southeast 448 516 31,500  Level FlightAware UK
05:36AM 52.7951 -7.3160 119° Southeast 448 516 31,500 4,500 Level FlightAware UK
05:36AM 52.7940 -7.3200 119° Southeast 502 578 33,000  Climbing FlightAware
05:36AM 52.7750 -7.2554 119° Southeast 446 513 31,500 -2,700 Descending FlightAware UK
05:37AM 52.7548 -7.1949 119° Southeast 448 516 31,500  Level FlightAware UK
05:37AM 52.7204 -7.0939 119° Southeast 448 516 31,500  Level FlightAware UK
05:37AM 52.7001 -7.0337 119° Southeast 448 516 31,500  Level FlightAware UK
05:38AM 52.6728 -6.9537 119° Southeast 450 518 31,500  Level FlightAware UK
05:38AM 52.6523 -6.8937 119° Southeast 452 520 31,500  Level FlightAware UK
05:38AM 52.6320 -6.8337 119° Southeast 452 520 31,500 3,420 Level FlightAware UK
05:39AM 52.6180 -6.8060 119° Southeast 503 579 33,000  Climbing FlightAware
05:39AM 52.6047 -6.7540 119° Southeast 450 518 31,500 -2,700 Descending FlightAware UK
05:39AM 52.5843 -6.6945 120° Southeast 448 516 31,500 3,720 Level FlightAware UK
05:39AM 52.5720 -6.6720 120° Southeast 501 577 33,000  Climbing FlightAware
05:40AM 52.5569 -6.6156 120° Southeast 446 513 31,500 -2,520 Descending FlightAware UK
05:40AM 52.5363 -6.5567 120° Southeast 446 513 31,500 4,080 Level FlightAware UK
05:40AM 52.5260 -6.5410 120° Southeast 499 574 33,000  Climbing FlightAware
05:40AM 52.5091 -6.4782 120° Southeast 444 511 31,500 -2,400 Descending FlightAware UK
05:41AM 52.4886 -6.4193 120° Southeast 444 511 31,500 3,600 Level FlightAware UK
05:41AM 52.4750 -6.3950 120° Southeast 499 574 33,000  Climbing FlightAware
05:41AM 52.4614 -6.3408 120° Southeast 446 513 31,500 -2,580 Descending FlightAware UK
05:41AM 52.4408 -6.2821 120° Southeast 448 516 31,500 3,900 Level FlightAware UK
05:41AM 52.4280 -6.2640 120° Southeast 499 574 33,000  Climbing FlightAware
05:42AM 52.4134 -6.2038 120° Southeast 448 516 31,500 -2,460 Descending FlightAware UK
05:42AM 52.3927 -6.1453 120° Southeast 446 513 31,500 4,260 Level FlightAware UK
05:42AM 52.3820 -6.1320 120° Southeast 498 573 33,000  Climbing FlightAware
05:42AM 52.3651 -6.0672 120° Southeast 446 513 31,500 -2,340 Descending FlightAware UK
05:43AM 52.3446 -6.0087 120° Southeast 446 513 31,500 3,720 Level FlightAware UK
05:43AM 52.3290 -5.9840 120° Southeast 498 573 33,000  Climbing FlightAware
05:43AM 52.3169 -5.9300 120° Southeast 444 511 31,500 -2,520 Descending FlightAware UK
05:43AM 52.2960 -5.8719 120° Southeast 444 511 31,500 4,080 Level FlightAware UK
05:43AM 52.2840 -5.8580 120° Southeast 499 574 33,000  Climbing FlightAware
05:44AM 52.2683 -5.7942 120° Southeast 448 516 31,500 -2,400 Descending FlightAware UK
05:44AM 52.2474 -5.7362 120° Southeast 448 516 31,500 3,600 Level FlightAware UK
05:44AM 52.2300 -5.7080 120° Southeast 498 573 33,000  Climbing FlightAware
05:44AM 52.2196 -5.6586 120° Southeast 450 518 31,500 -2,580 Descending FlightAware UK
05:45AM 52.1987 -5.6006 121° Southeast 450 518 31,500 3,900 Level FlightAware UK
05:45AM 52.1830 -5.5790 121° Southeast 498 573 33,000  Climbing FlightAware
05:45AM 52.1708 -5.5234 121° Southeast 454 522 31,500 -2,460 Descending FlightAware UK
05:45AM 52.1500 -5.4656 120° Southeast 456 525 31,500 4,260 Level FlightAware UK
05:45AM 52.1360 -5.4500 120° Southeast 495 570 33,000  Climbing FlightAware
05:46AM 52.1293 -5.4080 120° Southeast 452 520 31,500 -2,760 Descending FlightAware UK
05:46AM 52.1086 -5.3506 120° Southeast 452 520 31,500 3,000 Level FlightAware UK
05:46AM 52.0850 -5.3100 120° Southeast 493 567 33,000  Climbing FlightAware
05:47AM 52.0740 -5.2554 120° Southeast 450 518 31,500 -2,520 Descending FlightAware UK
05:47AM 52.0532 -5.1984 121° Southeast 450 518 31,500 4,080 Level FlightAware UK
05:47AM 52.0380 -5.1830 121° Southeast 491 565 33,000  Climbing FlightAware
05:47AM 52.0254 -5.1226 121° Southeast 450 518 31,500  Descending FlightAware UK
05:47AM 52.0030 -5.0880 121° Southeast 490 564 33,000  Climbing FlightAware
05:48AM 51.9946 -5.0247 121° Southeast 454 522 31,500 -2,400 Descending FlightAware UK
05:48AM 51.9787 -4.9645 113° Southeast 454 522 31,500 4,500 Level FlightAware UK
05:48AM 51.9650 -4.9530 113° Southeast 489 563 33,000  Climbing FlightAware
05:48AM 51.9662 -4.9018 113° Southeast 452 520 31,500 -2,700 Descending FlightAware UK
05:49AM 51.9532 -4.8400 109° East 452 520 31,500 3,060 Level FlightAware UK
05:49AM 51.9320 -4.7980 109° East 487 560 33,000  Climbing FlightAware
05:49AM 51.9305 -4.7358 109° East 454 522 31,500 -2,460 Descending FlightAware UK
05:49AM 51.9175 -4.6743 109° East 454 522 31,500 4,260 Level FlightAware UK
05:49AM 51.9020 -4.6610 109° East 483 556 33,000  Climbing FlightAware
05:50AM 51.8999 -4.5924 109° East 450 518 31,500 -2,340 Descending FlightAware UK
05:50AM 51.8866 -4.5312 109° East 450 518 31,500 3,720 Level FlightAware UK
05:50AM 51.8700 -4.5110 109° East 480 552 33,000 4,980 Climbing FlightAware
05:50AM 51.8598 -4.4643 109° East 481 554 33,000 -3,000 Level FlightAware ADS-B
05:51AM 51.8601 -4.4090 109° East 448 516 31,500 -1,680 Descending FlightAware UK
05:51AM 51.8341 -4.2884 109° East 448 516 31,500 1,800 Level FlightAware UK
05:52AM 51.8110 -4.2410 109° East 475 547 33,000  Climbing FlightAware
05:52AM 51.8123 -4.1886 109° East 450 518 31,500 -2,700 Descending FlightAware UK
05:52AM 51.7990 -4.1286 110° East 448 516 31,500 3,060 Level FlightAware UK
05:52AM 51.7780 -4.0910 110° East 472 543 33,000  Climbing FlightAware
05:53AM 51.7772 -4.0288 110° East 446 513 31,500  Descending FlightAware UK
05:53AM 51.7490 -3.9590 110° East 470 541 33,000  Climbing FlightAware
05:53AM 51.7509 -3.9096 110° East 448 516 31,500 -2,340 Descending FlightAware UK
05:54AM 51.7334 -3.8305 110° East 448 516 31,500 3,600 Level FlightAware UK
05:54AM 51.7190 -3.8260 110° East 469 540 33,000  Climbing FlightAware
05:54AM 51.7202 -3.7713 110° East 448 516 31,500  Descending FlightAware UK
05:54AM 51.6959 -3.7227 110° East 467 537 33,000 2,040 Climbing FlightAware ADS-B
05:55AM 51.6740 -3.6247 110° East 467 537 33,000 -1,740 Level FlightAware ADS-B
05:55AM 51.6718 -3.5557 110° East 446 513 31,500  Descending FlightAware UK
05:55AM 51.6481 -3.5112 110° East 463 533 33,000  Climbing FlightAware ADS-B
05:56AM 51.6497 -3.4592 110° East 448 516 31,500  Descending FlightAware UK
05:56AM 51.6250 -3.4100 110° East 460 529 33,000 2,700 Climbing FlightAware
05:56AM 51.6103 -3.3456 110° East 460 529 33,000 -2,400 Level FlightAware ADS-B
05:56AM 51.6108 -3.2855 110° East 446 513 31,500  Descending FlightAware UK
05:57AM 51.5905 -3.2422 110° East 463 533 33,000 1,920 Climbing FlightAware ADS-B
05:57AM 51.5761 -3.1358 102° East 456 525 32,900 -900 Descending FlightAware ADS-B
05:58AM 51.5627 -3.0360 102° East 445 512 32,100 -4,140 Descending FlightAware ADS-B
05:58AM 51.5707 -2.9880 102° East 440 506 29,700 -3,000 Descending FlightAware UK
05:58AM 51.5498 -2.9378 102° East 448 516 30,600 -2,040 Climbing FlightAware ADS-B
05:58AM 51.5577 -2.8907 102° East 432 497 28,700 -1,020 Descending FlightAware UK
05:59AM 51.5370 -2.8400 102° East 439 505 30,100 1,680 Climbing FlightAware ADS-B
05:59AM 51.5237 -2.7425 102° East 442 509 30,000 -600 Descending FlightAware ADS-B
06:00AM 51.5105 -2.6439 102° East 438 504 29,500 -3,540 Descending FlightAware ADS-B
06:00AM 51.5164 -2.5843 102° East 424 488 27,000 -2,820 Descending FlightAware UK
06:00AM 51.4967 -2.5436 102° East 429 494 28,000 -3,000 Climbing FlightAware ADS-B
06:01AM 51.5034 -2.4916 102° East 412 474 25,500 -3,120 Descending FlightAware UK
06:01AM 51.4836 -2.4471 102° East 425 489 26,400 -2,880 Climbing FlightAware ADS-B
06:01AM 51.4881 -2.3811 102° East 406 467 23,800 -2,760 Descending FlightAware UK
06:01AM 51.4705 -2.3547 102° East 419 482 25,000 -2,400 Climbing FlightAware ADS-B
06:02AM 51.4751 -2.2905 102° East 400 460 22,600 -2,340 Descending FlightAware UK
06:02AM 51.4575 -2.2604 102° East 410 472 23,800 120 Climbing FlightAware ADS-B
06:02AM 51.4452 -2.1706 102° East 397 457 22,700 -4,260 Descending FlightAware ADS-B
06:03AM 51.4510 -2.1158 102° East 384 442 20,200 -2,820 Descending FlightAware UK
06:03AM 51.4336 -2.0846 102° East 389 448 21,300 -2,820 Climbing FlightAware ADS-B
06:03AM 51.4397 -2.0318 102° East 378 435 18,800 -2,760 Descending FlightAware UK
06:03AM 51.4221 -2.0000 102° East 378 435 19,900 -720 Climbing FlightAware ADS-B
06:04AM 51.4093 -1.9076 102° East 371 427 18,300 -4,800 Descending FlightAware ADS-B
06:04AM 51.4165 -1.8700 102° East 360 414 16,000 -2,520 Descending FlightAware UK
06:04AM 51.3972 -1.8255 102° East 365 420 17,000 -180 Climbing FlightAware ADS-B
06:05AM 51.3850 -1.7438 103° East 360 414 15,900 -1,980 Descending FlightAware ADS-B
06:06AM 51.3703 -1.6500 104° East 356 410 14,800 -3,540 Descending FlightAware ADS-B
06:06AM 51.3752 -1.6053 104° East 344 396 12,700 -1,980 Descending FlightAware UK
06:06AM 51.3612 -1.5806 104° East 351 404 13,900 -1,800 Climbing FlightAware ADS-B
06:06AM 51.3701 -1.5438 104° East 340 391 12,000 -1,620 Descending FlightAware UK
06:06AM 51.3556 -1.5035 104° East 349 402 13,100 360 Climbing FlightAware ADS-B
06:07AM 51.3513 -1.4241 95° East 344 396 12,300 -1,320 Descending FlightAware ADS-B
06:08AM 51.3472 -1.3486 95° East 346 398 11,800 -2,760 Descending FlightAware ADS-B
06:08AM 51.3559 -1.2985 95° East 330 380 10,000 -900 Descending FlightAware UK
06:08AM 51.3436 -1.2754 95° East 347 399 11,400 -780 Climbing FlightAware ADS-B
06:08AM 51.3525 -1.2371 95° East 332 382 9,700 -420 Descending FlightAware UK
06:08AM 51.3396 -1.1983 95° East 341 392 11,200 -420 Climbing FlightAware ADS-B
06:09AM 51.3482 -1.1610 95° East 328 377 9,500 -1,200 Descending FlightAware UK
06:09AM 51.3357 -1.1229 95° East 339 390 10,600 720 Climbing FlightAware ADS-B
06:09AM 51.3320 -1.0572 95° East 333 383 10,000 -1,320 Descending FlightAware ADS-B
06:10AM 51.3301 -1.0204 95° East 329 379 9,700 -1,380 Descending FlightAware ADS-B
06:10AM 51.3281 -0.9843 95° East 326 375 9,300 -1,620 Descending FlightAware ADS-B
06:10AM 51.3260 -0.9472 95° East 325 374 8,900 -1,740 Descending FlightAware ADS-B
06:10AM 51.3243 -0.9156 95° East 324 373 8,500 -1,680 Descending FlightAware ADS-B
06:11AM 51.3223 -0.8793 95° East 322 371 8,100 -1,020 Descending FlightAware ADS-B
06:11AM 51.3204 -0.8430 95° East 318 366 8,000 -240 Descending FlightAware ADS-B
06:11AM 51.3188 -0.8150 95° East 317 365 8,000  Level FlightAware ADS-B
06:11AM 51.3168 -0.7789 95° East 319 367 8,000  Level FlightAware ADS-B
06:12AM 51.3147 -0.7438 95° East 317 365 8,000  Level FlightAware ADS-B
06:12AM 51.3127 -0.7079 95° East 305 351 8,000  Level FlightAware ADS-B
06:12AM 51.3109 -0.6744 95° East 290 334 8,000  Level FlightAware ADS-B
06:12AM 51.3092 -0.6427 95° East 272 313 8,000  Level FlightAware ADS-B
06:13AM 51.3075 -0.6119 95° East 255 293 8,000  Level FlightAware ADS-B
06:13AM 51.3058 -0.5836 95° East 249 287 8,000  Level FlightAware ADS-B
06:13AM 51.3041 -0.5546 95° East 249 287 8,000  Level FlightAware ADS-B
06:13AM 51.3024 -0.5249 95° East 251 289 8,000  Level FlightAware ADS-B
06:14AM 51.3007 -0.4962 95° East 253 291 8,000 -240 Level FlightAware ADS-B
06:14AM 51.2993 -0.4727 95° East 253 291 7,900 -720 Descending FlightAware ADS-B
06:14AM 51.2977 -0.4449 95° East 248 285 7,700 -900 Descending FlightAware ADS-B
06:14AM 51.2967 -0.4238 94° East 247 284 7,500 -1,320 Descending FlightAware ADS-B
06:14AM 51.2971 -0.4120 87° East 249 287 7,300 -1,500 Descending FlightAware ADS-B
06:15AM 51.2985 -0.4017 78° East 249 287 7,200 -960 Descending FlightAware ADS-B
06:15AM 51.3013 -0.3873 73° East 248 285 7,100 -540 Descending FlightAware ADS-B
06:15AM 51.3067 -0.3610 72° East 246 283 7,000 -240 Descending FlightAware ADS-B
06:15AM 51.3119 -0.3358 72° East 250 288 7,000  Level FlightAware ADS-B
06:15AM 51.3174 -0.3082 72° East 252 290 7,000  Level FlightAware ADS-B
06:16AM 51.3230 -0.2795 73° East 251 289 7,000 -240 Level FlightAware ADS-B
06:16AM 51.3285 -0.2523 72° East 251 289 6,900 -600 Descending FlightAware ADS-B
06:16AM 51.3339 -0.2255 72° East 247 284 6,700 -960 Descending FlightAware ADS-B
06:17AM 51.3393 -0.1981 73° East 247 284 6,400 -1,380 Descending FlightAware ADS-B
06:17AM 51.3448 -0.1710 72° East 246 283 6,000 -1,140 Descending FlightAware ADS-B
06:17AM 51.3506 -0.1430 72° East 240 276 5,800 -600 Descending FlightAware ADS-B
06:17AM 51.3560 -0.1171 72° East 229 264 5,700 -240 Descending FlightAware ADS-B
06:17AM 51.3594 -0.1007 72° East 219 252 5,700  Level FlightAware ADS-B
06:18AM 51.3607 -0.0961 66° East 216 249 5,700 -900 Level FlightAware ADS-B
06:18AM 51.3627 -0.0904 60° Northeast 213 245 5,600 -720 Descending FlightAware ADS-B
06:18AM 51.3658 -0.0842 51° Northeast 210 242 5,600 -780 Level FlightAware ADS-B
06:18AM 51.3682 -0.0811 39° Northeast 208 239 5,500 -780 Descending FlightAware ADS-B
06:18AM 51.3717 -0.0776 32° Northeast 205 236 5,500 -600 Level FlightAware ADS-B
06:18AM 51.3763 -0.0749 20° North 202 232 5,400 -1,200 Descending FlightAware ADS-B
06:18AM 51.3807 -0.0738 North 200 230 5,300 -1,020 Descending FlightAware ADS-B
06:18AM 51.3875 -0.0736 North 197 227 5,200 -960 Descending FlightAware ADS-B
06:18AM 51.3985 -0.0743 358° North 196 226 5,000 -1,080 Descending FlightAware ADS-B
06:19AM 51.4124 -0.0748 359° North 195 224 4,700 -1,260 Descending FlightAware ADS-B
06:19AM 51.4285 -0.0754 359° North 193 222 4,300 -1,200 Descending FlightAware ADS-B
06:19AM 51.4400 -0.0759 358° North 191 220 4,100 -720 Descending FlightAware ADS-B
06:19AM 51.4441 -0.0768 353° North 191 220 4,100 -960 Level FlightAware ADS-B
06:19AM 51.4513 -0.0816 337° Northwest 187 215 3,900 -780 Descending FlightAware ADS-B
06:19AM 51.4552 -0.0871 319° Northwest 185 213 3,900 -600 Level FlightAware ADS-B
06:19AM 51.4569 -0.0906 309° West 185 213 3,800 -780 Descending FlightAware ADS-B
06:20AM 51.4588 -0.0967 296° West 184 212 3,800  Level FlightAware ADS-B
06:20AM 51.4596 -0.1006 288° West 183 211 3,800 -720 Level FlightAware ADS-B
06:20AM 51.4610 -0.1088 285° West 180 207 3,700 -1,140 Descending FlightAware ADS-B
06:20AM 51.4615 -0.1146 278° West 177 204 3,600 -600 Descending FlightAware ADS-B
06:20AM 51.4620 -0.1228 276° West 172 198 3,600 -360 Level FlightAware ADS-B
06:20AM 51.4622 -0.1381 271° West 164 189 3,500 -660 Descending FlightAware ADS-B
06:20AM 51.4627 -0.1585 272° West 161 185 3,300 -780 Descending FlightAware ADS-B
06:21AM 51.4629 -0.1774 271° West 162 186 3,100 -840 Descending FlightAware ADS-B
06:21AM 51.4630 -0.1929 271° West 161 185 2,900 -900 Descending FlightAware ADS-B
06:21AM 51.4632 -0.2110 271° West 155 178 2,700 -960 Descending FlightAware ADS-B
06:21AM 51.4634 -0.2296 271° West 155 178 2,400 -960 Descending FlightAware ADS-B
06:22AM 51.4637 -0.2552 271° West 158 182 2,100 -840 Descending FlightAware ADS-B
06:22AM 51.4639 -0.2741 271° West 159 183 1,900 -960 Descending FlightAware ADS-B
06:22AM 51.4639 -0.2953 270° West 159 183 1,600 -900 Descending FlightAware ADS-B
06:23AM 51.4640 -0.3530 270° West 149 171 900 -840 Descending FlightAware
06:24AM 51.4650 -0.3850 273° West 151 174 500 -840 Descending FlightAware
06:24AM 51.4650 -0.4020 270° West 150 173 300 -840 Descending FlightAware
06:24AM 51.4650 -0.4240 270° West 147 169 -900 Descending FlightAware